createdAt,value
2018-05-13T00:01:23.322Z,26.00
2018-05-13T00:03:50.778Z,26.90
2018-05-13T00:06:18.203Z,25.80
2018-05-13T00:08:45.644Z,26.63
2018-05-13T00:11:13.848Z,26.48
2018-05-13T00:13:41.293Z,26.15
2018-05-13T00:16:08.778Z,27.15
2018-05-13T00:18:36.229Z,26.90
2018-05-13T00:21:03.664Z,27.13
2018-05-13T00:23:31.108Z,27.23
2018-05-13T00:25:59.340Z,26.35
2018-05-13T00:28:26.789Z,26.20
2018-05-13T00:30:54.215Z,26.85
2018-05-13T00:33:21.725Z,26.67
2018-05-13T00:35:49.156Z,27.03
2018-05-13T00:38:16.589Z,27.25
2018-05-13T00:40:44.058Z,27.40
2018-05-13T00:43:11.496Z,27.13
2018-05-13T00:45:38.963Z,27.95
2018-05-13T00:48:06.447Z,27.67
2018-05-13T00:50:33.943Z,27.52
2018-05-13T00:53:01.543Z,27.45
2018-05-13T00:55:28.956Z,27.87
2018-05-13T00:57:57.188Z,27.70
2018-05-13T01:00:24.732Z,28.40
2018-05-13T01:02:52.167Z,27.52
2018-05-13T01:05:20.463Z,26.35
2018-05-13T01:07:47.936Z,26.65
2018-05-13T01:10:15.381Z,27.17
2018-05-13T01:12:42.829Z,27.47
2018-05-13T01:15:10.295Z,27.80
2018-05-13T01:17:37.854Z,26.20
2018-05-13T01:20:05.273Z,27.05
2018-05-13T01:22:33.495Z,26.98
2018-05-13T01:25:00.945Z,26.62
2018-05-13T01:27:28.388Z,25.95
2018-05-13T01:29:55.829Z,26.50
2018-05-13T01:32:23.334Z,26.67
2018-05-13T01:34:51.540Z,27.10
2018-05-13T01:37:19.040Z,26.48
2018-05-13T01:39:46.524Z,25.30
2018-05-13T01:42:14.222Z,26.23
2018-05-13T01:44:41.644Z,25.77
2018-05-13T01:47:09.089Z,26.40
2018-05-13T01:49:36.525Z,26.55
2018-05-13T01:52:04.098Z,25.48
2018-05-13T01:54:31.528Z,25.08
2018-05-13T01:56:59.036Z,25.77
2018-05-13T01:59:26.596Z,25.60
2018-05-13T02:01:54.040Z,26.87
2018-05-13T02:04:21.485Z,25.70
2018-05-13T02:06:49.079Z,26.02
2018-05-13T02:09:16.512Z,25.52
2018-05-13T02:11:44.056Z,25.88
2018-05-13T02:14:11.492Z,25.65
2018-05-13T02:16:39.001Z,25.47
2018-05-13T02:19:06.547Z,25.88
2018-05-13T02:21:34.086Z,26.20
2018-05-13T02:24:02.539Z,25.98
2018-05-13T02:26:29.988Z,26.87
2018-05-13T02:28:58.216Z,25.77
2018-05-13T02:31:25.677Z,26.70
2018-05-13T02:33:53.121Z,26.55
2018-05-13T02:36:20.666Z,28.00
2018-05-13T02:38:48.121Z,26.50
2018-05-13T02:41:15.575Z,26.47
2018-05-13T02:43:43.034Z,27.08
2018-05-13T02:46:10.520Z,26.55
2018-05-13T02:48:38.094Z,26.60
2018-05-13T02:51:05.541Z,25.47
2018-05-13T02:53:32.976Z,26.62
2018-05-13T02:56:00.423Z,26.83
2018-05-13T02:58:27.864Z,25.83
2018-05-13T03:00:55.298Z,25.75
2018-05-13T03:03:23.553Z,25.73
2018-05-13T03:05:51.091Z,25.90
2018-05-13T03:08:18.528Z,25.80
2018-05-13T03:10:46.000Z,25.83
2018-05-13T03:13:13.433Z,27.63
2018-05-13T03:15:40.870Z,26.40
2018-05-13T03:18:08.316Z,28.15
2018-05-13T03:20:35.753Z,28.13
2018-05-13T03:23:03.961Z,27.83
2018-05-13T03:25:31.399Z,26.37
2018-05-13T03:27:59.612Z,27.02
2018-05-13T03:30:27.060Z,26.77
2018-05-13T03:32:54.541Z,26.73
2018-05-13T03:35:21.995Z,26.08
2018-05-13T03:37:49.579Z,25.95
2018-05-13T03:40:16.969Z,27.05
2018-05-13T03:42:44.469Z,27.30
2018-05-13T03:45:12.002Z,28.17
2018-05-13T03:47:39.441Z,27.58
2018-05-13T03:50:06.876Z,26.25
2018-05-13T03:52:35.075Z,28.33
2018-05-13T03:55:02.529Z,27.77
2018-05-13T03:57:29.976Z,27.17
2018-05-13T03:59:57.429Z,26.25
2018-05-13T04:02:25.621Z,26.55
2018-05-13T04:04:53.127Z,26.75
2018-05-13T04:07:20.610Z,26.90
2018-05-13T04:10:00.010Z,27.77
2018-05-13T04:12:39.298Z,28.10
2018-05-13T04:15:22.527Z,25.15
2018-05-13T04:17:49.976Z,25.60
2018-05-13T04:20:17.426Z,27.83
2018-05-13T04:22:45.629Z,25.92
2018-05-13T04:25:13.067Z,26.12
2018-05-13T04:27:40.644Z,26.00
2018-05-13T04:30:08.073Z,26.52
2018-05-13T04:32:35.510Z,26.20
2018-05-13T04:35:03.725Z,26.23
2018-05-13T04:37:31.208Z,26.08
2018-05-13T04:39:58.661Z,26.00
2018-05-13T04:42:26.096Z,25.98
2018-05-13T04:44:53.557Z,26.00
2018-05-13T04:47:21.008Z,26.63
2018-05-13T04:49:48.487Z,26.20
2018-05-13T04:52:15.928Z,24.65
2018-05-13T04:54:43.387Z,25.12
2018-05-13T04:57:10.825Z,26.33
2018-05-13T04:59:38.313Z,25.60
2018-05-13T05:02:05.769Z,25.80
2018-05-13T05:04:33.224Z,26.48
2018-05-13T05:07:00.672Z,25.00
2018-05-13T05:09:28.120Z,24.73
2018-05-13T05:11:55.677Z,24.67
2018-05-13T05:14:23.112Z,23.15
2018-05-13T05:16:50.617Z,24.60
2018-05-13T05:19:18.050Z,23.37
2018-05-13T05:21:45.493Z,24.10
2018-05-13T05:24:12.980Z,24.30
2018-05-13T05:26:40.421Z,24.20
2018-05-13T05:29:07.889Z,24.02
2018-05-13T05:31:35.345Z,23.23
2018-05-13T05:34:02.807Z,22.23
2018-05-13T05:36:30.338Z,23.80
2018-05-13T05:38:57.994Z,24.00
2018-05-13T05:41:25.433Z,23.73
2018-05-13T05:43:52.871Z,23.42
2018-05-13T05:46:20.363Z,23.10
2018-05-13T05:48:47.787Z,22.37
2018-05-13T05:51:16.022Z,22.48
2018-05-13T05:53:43.468Z,21.60
2018-05-13T05:56:10.917Z,22.15
2018-05-13T05:58:38.373Z,22.65
2018-05-13T06:01:05.829Z,22.65
2018-05-13T06:03:33.268Z,22.48
2018-05-13T06:06:00.703Z,23.00
2018-05-13T06:08:28.928Z,22.20
2018-05-13T06:10:56.417Z,22.75
2018-05-13T06:13:23.844Z,22.40
2018-05-13T06:15:51.345Z,23.10
2018-05-13T06:18:19.608Z,22.05
2018-05-13T06:20:47.085Z,21.83
2018-05-13T06:23:14.525Z,20.90
2018-05-13T06:25:41.953Z,22.55
2018-05-13T06:28:09.399Z,22.90
2018-05-13T06:30:36.857Z,21.62
2018-05-13T06:33:04.311Z,22.75
2018-05-13T06:35:31.746Z,22.60
2018-05-13T06:37:59.216Z,21.52
2018-05-13T06:40:26.689Z,22.40
2018-05-13T06:42:54.320Z,22.00
2018-05-13T06:45:21.965Z,22.17
2018-05-13T06:47:49.311Z,23.43
2018-05-13T06:50:17.529Z,23.95
2018-05-13T06:52:44.984Z,23.75
2018-05-13T06:55:12.436Z,21.87
2018-05-13T06:57:39.876Z,21.10
2018-05-13T07:00:07.318Z,23.00
2018-05-13T07:02:34.760Z,23.35
2018-05-13T07:05:03.005Z,23.48
2018-05-13T07:07:30.440Z,22.83
2018-05-13T07:09:57.874Z,22.50
2018-05-13T07:12:25.307Z,23.47
2018-05-13T07:14:52.901Z,24.50
2018-05-13T07:17:20.329Z,21.23
2018-05-13T07:19:47.829Z,24.05
2018-05-13T07:22:15.311Z,23.58
2018-05-13T07:24:42.740Z,22.27
2018-05-13T07:27:10.185Z,24.02
2018-05-13T07:29:37.646Z,24.53
2018-05-13T07:32:05.076Z,22.75
2018-05-13T07:34:32.520Z,23.07
2018-05-13T07:37:00.030Z,23.23
2018-05-13T07:39:27.469Z,23.65
2018-05-13T07:41:54.904Z,24.50
2018-05-13T07:44:22.348Z,22.30
2018-05-13T07:46:50.129Z,22.95
2018-05-13T07:49:17.576Z,24.35
2018-05-13T07:51:45.021Z,21.62
2018-05-13T07:54:12.480Z,23.30
2018-05-13T07:56:39.954Z,24.85
2018-05-13T07:59:07.411Z,24.27
2018-05-13T08:01:34.893Z,25.12
2018-05-13T08:04:02.361Z,23.38
2018-05-13T08:06:29.823Z,24.23
2018-05-13T08:08:57.252Z,23.58
2018-05-13T08:11:24.707Z,23.90
2018-05-13T08:13:52.180Z,22.87
2018-05-13T08:16:19.621Z,22.87
2018-05-13T08:18:47.064Z,22.90
2018-05-13T08:21:14.541Z,23.05
2018-05-13T08:23:41.992Z,22.83
2018-05-13T08:26:09.426Z,22.27
2018-05-13T08:28:36.878Z,24.02
2018-05-13T08:31:04.360Z,23.70
2018-05-13T08:33:31.823Z,21.85
2018-05-13T08:35:59.257Z,22.83
2018-05-13T08:38:26.711Z,22.93
2018-05-13T08:40:54.167Z,23.20
2018-05-13T08:43:21.624Z,23.27
2018-05-13T08:45:49.096Z,23.02
2018-05-13T08:48:16.639Z,23.42
2018-05-13T08:50:44.060Z,23.15
2018-05-13T08:53:12.270Z,22.98
2018-05-13T08:55:39.728Z,23.95
2018-05-13T08:58:07.170Z,22.73
2018-05-13T09:00:34.662Z,21.50
2018-05-13T09:03:02.117Z,21.70
2018-05-13T09:05:29.558Z,21.73
2018-05-13T09:07:57.012Z,24.98
2018-05-13T09:10:24.779Z,20.65
2018-05-13T09:12:52.220Z,21.58
2018-05-13T09:15:19.675Z,21.70
2018-05-13T09:17:47.141Z,21.40
2018-05-13T09:20:14.641Z,20.00
2018-05-13T09:22:42.108Z,19.12
2018-05-13T09:25:09.548Z,19.52
2018-05-13T09:27:37.024Z,19.02
2018-05-13T09:30:05.245Z,18.15
2018-05-13T09:32:32.708Z,17.90
2018-05-13T09:35:00.187Z,18.05
2018-05-13T09:37:27.635Z,18.83
2018-05-13T09:39:55.092Z,17.58
2018-05-13T09:42:22.537Z,18.15
2018-05-13T09:44:49.990Z,18.70
2018-05-13T09:47:17.442Z,17.10
2018-05-13T09:49:44.895Z,18.50
2018-05-13T09:52:12.337Z,17.42
2018-05-13T09:54:39.775Z,17.60
2018-05-13T09:57:07.985Z,17.13
2018-05-13T09:59:35.535Z,16.65
2018-05-13T10:02:02.961Z,15.55
2018-05-13T10:04:31.173Z,17.80
2018-05-13T10:06:58.723Z,18.00
2018-05-13T10:09:26.247Z,16.90
2018-05-13T10:11:53.604Z,15.40
2018-05-13T10:14:21.912Z,16.65
2018-05-13T10:16:49.352Z,28.12
2018-05-13T10:19:16.808Z,16.58
2018-05-13T10:21:44.256Z,15.82
2018-05-13T10:24:12.472Z,16.75
2018-05-13T10:26:39.901Z,16.20
2018-05-13T10:29:07.351Z,16.12
2018-05-13T10:31:34.805Z,16.45
2018-05-13T10:34:02.273Z,18.35
2018-05-13T10:36:29.804Z,16.05
2018-05-13T10:38:57.213Z,16.87
2018-05-13T10:41:24.668Z,16.23
2018-05-13T10:43:52.116Z,15.90
2018-05-13T10:46:19.579Z,15.45
2018-05-13T10:48:47.016Z,15.68
2018-05-13T10:51:14.457Z,16.13
2018-05-13T10:53:41.904Z,19.52
2018-05-13T10:56:09.353Z,16.37
2018-05-13T10:58:37.577Z,15.32
2018-05-13T11:01:05.119Z,15.70
2018-05-13T11:03:32.593Z,15.18
2018-05-13T11:06:00.132Z,17.67
2018-05-13T11:08:27.574Z,14.82
2018-05-13T11:10:55.017Z,15.60
2018-05-13T11:13:23.321Z,13.85
2018-05-13T11:15:50.891Z,14.35
2018-05-13T11:18:18.372Z,13.68
2018-05-13T11:20:45.902Z,16.00
2018-05-13T11:23:13.268Z,17.08
2018-05-13T11:25:40.807Z,13.82
2018-05-13T11:28:08.250Z,13.00
2018-05-13T11:30:35.701Z,16.10
2018-05-13T11:33:03.192Z,91.93
2018-05-13T11:35:30.735Z,13.35
2018-05-13T11:37:58.168Z,13.05
2018-05-13T11:40:25.628Z,13.43
2018-05-13T11:42:53.069Z,13.32
2018-05-13T11:45:21.304Z,14.15
2018-05-13T11:47:48.749Z,13.62
2018-05-13T11:50:16.196Z,13.70
2018-05-13T11:52:43.680Z,15.43
2018-05-13T11:55:11.112Z,13.30
2018-05-13T11:57:38.560Z,16.35
2018-05-13T12:00:06.057Z,19.62
2018-05-13T12:02:33.553Z,13.75
2018-05-13T12:05:01.069Z,13.48
2018-05-13T12:07:28.519Z,17.05
2018-05-13T12:09:55.966Z,18.05
2018-05-13T12:12:23.407Z,14.20
2018-05-13T12:14:50.882Z,13.13
2018-05-13T12:17:18.305Z,14.10
2018-05-13T12:19:45.792Z,13.73
2018-05-13T12:22:13.243Z,13.50
2018-05-13T12:24:40.722Z,14.23
2018-05-13T12:27:08.178Z,17.00
2018-05-13T12:29:35.641Z,14.20
2018-05-13T12:32:03.080Z,13.80
2018-05-13T12:34:30.641Z,15.52
2018-05-13T12:36:58.089Z,14.80
2018-05-13T12:39:25.561Z,14.13
2018-05-13T12:41:52.979Z,14.82
2018-05-13T12:44:20.541Z,14.25
2018-05-13T12:46:48.121Z,14.23
2018-05-13T12:49:15.585Z,14.75
2018-05-13T12:51:43.033Z,19.77
2018-05-13T12:54:10.506Z,14.00
2018-05-13T12:56:37.944Z,21.77
2018-05-13T12:59:05.396Z,14.43
2018-05-13T13:01:32.829Z,13.85
2018-05-13T13:04:00.326Z,15.17
2018-05-13T13:06:27.779Z,13.77
2018-05-13T13:08:55.202Z,14.87
2018-05-13T13:11:22.654Z,14.20
2018-05-13T13:13:50.085Z,14.50
2018-05-13T13:16:17.545Z,15.30
2018-05-13T13:18:45.047Z,16.20
2018-05-13T13:21:12.794Z,16.50
2018-05-13T13:23:40.231Z,19.83
2018-05-13T13:26:07.705Z,18.55
2018-05-13T13:28:35.144Z,18.35
2018-05-13T13:31:02.592Z,16.95
2018-05-13T13:33:30.054Z,17.10
2018-05-13T13:35:57.508Z,15.98
2018-05-13T13:38:25.802Z,16.58
2018-05-13T13:40:53.296Z,16.83
2018-05-13T13:43:20.733Z,17.60
2018-05-13T13:45:48.219Z,17.55
2018-05-13T13:48:15.664Z,19.87
2018-05-13T13:50:43.110Z,18.23
2018-05-13T13:53:10.565Z,16.75
2018-05-13T13:55:38.099Z,17.98
2018-05-13T13:58:05.533Z,17.48
2018-05-13T14:00:32.980Z,17.75
2018-05-13T14:03:01.290Z,16.42
2018-05-13T14:05:28.730Z,15.87
2018-05-13T14:07:56.184Z,16.50
2018-05-13T14:10:23.682Z,16.30
2018-05-13T14:12:51.113Z,16.03
2018-05-13T14:15:18.672Z,14.80
2018-05-13T14:17:46.105Z,14.82
2018-05-13T14:20:13.591Z,15.10
2018-05-13T14:22:41.069Z,13.82
2018-05-13T14:25:08.618Z,14.70
2018-05-13T14:27:36.072Z,13.98
2018-05-13T14:30:03.616Z,14.40
2018-05-13T14:32:31.122Z,13.20
2018-05-13T14:34:58.629Z,12.73
2018-05-13T14:37:26.060Z,12.85
2018-05-13T14:39:54.354Z,12.32
2018-05-13T14:42:21.821Z,14.07
2018-05-13T14:44:49.308Z,13.13
2018-05-13T14:47:16.760Z,13.00
2018-05-13T14:49:44.205Z,12.20
2018-05-13T14:52:11.652Z,12.50
2018-05-13T14:54:39.109Z,12.90
2018-05-13T14:57:06.658Z,12.35
2018-05-13T14:59:34.115Z,13.15
2018-05-13T15:02:01.550Z,11.82
2018-05-13T15:04:29.047Z,11.80
2018-05-13T15:06:56.593Z,12.88
2018-05-13T15:09:25.260Z,11.32
2018-05-13T15:11:51.966Z,11.40
2018-05-13T15:14:19.393Z,13.05
2018-05-13T15:16:46.840Z,10.80
2018-05-13T15:19:14.296Z,10.60
2018-05-13T15:21:41.801Z,9.90
2018-05-13T15:24:10.007Z,9.85
2018-05-13T15:26:37.432Z,10.25
2018-05-13T15:29:06.258Z,14.02
2018-05-13T15:31:33.745Z,21.77
2018-05-13T15:34:01.192Z,9.70
2018-05-13T15:36:28.657Z,8.80
2018-05-13T15:38:56.100Z,8.00
2018-05-13T15:41:23.576Z,8.02
2018-05-13T15:43:51.010Z,9.37
2018-05-13T15:46:18.432Z,8.40
2018-05-13T15:48:46.005Z,8.60
2018-05-13T15:51:13.440Z,8.50
2018-05-13T15:53:41.634Z,14.10
2018-05-13T15:56:09.252Z,9.32
2018-05-13T15:58:37.516Z,6.95
2018-05-13T16:01:04.963Z,8.95
2018-05-13T16:03:32.402Z,6.70
2018-05-13T16:05:59.977Z,6.97
2018-05-13T16:08:27.412Z,6.90
2018-05-13T16:10:54.856Z,9.38
2018-05-13T16:13:22.512Z,13.32
2018-05-13T16:15:50.072Z,6.90
2018-05-13T16:18:17.511Z,8.25
2018-05-13T16:20:44.949Z,7.30
2018-05-13T16:23:13.184Z,20.55
2018-05-13T16:25:40.641Z,8.50
2018-05-13T16:28:08.088Z,8.32
2018-05-13T16:30:35.557Z,6.10
2018-05-13T16:33:03.003Z,13.55
2018-05-13T16:35:30.441Z,9.48
2018-05-13T16:37:57.912Z,5.78
2018-05-13T16:40:25.356Z,10.45
2018-05-13T16:42:52.802Z,16.83
2018-05-13T16:45:20.246Z,6.72
2018-05-13T16:47:48.464Z,7.15
2018-05-13T16:50:15.932Z,8.27
2018-05-13T16:52:43.473Z,9.32
2018-05-13T16:55:10.912Z,12.95
2018-05-13T16:57:38.365Z,12.87
2018-05-13T17:00:05.847Z,7.63
2018-05-13T17:02:33.329Z,9.10
2018-05-13T17:05:00.733Z,5.87
2018-05-13T17:07:28.181Z,6.65
2018-05-13T17:09:55.618Z,5.55
2018-05-13T17:12:23.923Z,5.97
2018-05-13T17:14:51.359Z,10.80
2018-05-13T17:17:18.796Z,5.00
2018-05-13T17:19:46.225Z,8.20
2018-05-13T17:22:13.643Z,9.73
2018-05-13T17:24:41.088Z,8.85
2018-05-13T17:27:08.557Z,9.73
2018-05-13T17:29:36.014Z,6.47
2018-05-13T17:32:03.450Z,5.53
2018-05-13T17:34:31.704Z,6.70
2018-05-13T17:36:59.918Z,4.90
2018-05-13T17:39:27.449Z,8.35
2018-05-13T17:41:54.830Z,11.03
2018-05-13T17:44:22.260Z,5.45
2018-05-13T17:46:50.488Z,6.43
2018-05-13T17:49:17.961Z,5.00
2018-05-13T17:51:45.410Z,7.62
2018-05-13T17:54:12.878Z,10.90
2018-05-13T17:56:40.318Z,7.12
2018-05-13T17:59:08.592Z,5.37
2018-05-13T18:01:36.039Z,5.30
2018-05-13T18:04:03.517Z,7.37
2018-05-13T18:06:30.913Z,3.95
2018-05-13T18:08:58.412Z,6.40
2018-05-13T18:11:25.886Z,10.20
2018-05-13T18:13:53.328Z,4.20
2018-05-13T18:16:20.772Z,9.27
2018-05-13T18:18:48.209Z,4.60
2018-05-13T18:21:15.695Z,6.20
2018-05-13T18:23:43.148Z,7.12
2018-05-13T18:26:10.604Z,4.87
2018-05-13T18:28:38.054Z,8.90
2018-05-13T18:31:05.519Z,7.10
2018-05-13T18:33:33.024Z,21.83
2018-05-13T18:36:01.216Z,4.80
2018-05-13T18:38:28.721Z,5.53
2018-05-13T18:40:56.179Z,5.70
2018-05-13T18:43:23.619Z,5.10
2018-05-13T18:45:51.053Z,6.68
2018-05-13T18:48:18.496Z,12.30
2018-05-13T18:50:45.914Z,9.02
2018-05-13T18:53:13.364Z,4.90
2018-05-13T18:55:40.793Z,5.75
2018-05-13T18:58:08.224Z,5.70
2018-05-13T19:00:35.692Z,6.05
2018-05-13T19:03:03.139Z,6.80
2018-05-13T19:05:30.572Z,8.45
2018-05-13T19:07:58.793Z,8.63
2018-05-13T19:10:26.213Z,6.80
2018-05-13T19:12:53.656Z,6.40
2018-05-13T19:15:21.897Z,9.20
2018-05-13T19:17:49.346Z,7.95
2018-05-13T19:20:16.876Z,8.70
2018-05-13T19:22:44.349Z,7.35
2018-05-13T19:25:11.795Z,8.15
2018-05-13T19:27:39.244Z,5.80
2018-05-13T19:30:06.703Z,7.68
2018-05-13T19:32:34.144Z,6.97
2018-05-13T19:35:01.673Z,7.25
2018-05-13T19:37:29.088Z,6.32
2018-05-13T19:39:56.538Z,7.50
2018-05-13T19:42:23.983Z,6.07
2018-05-13T19:44:51.448Z,7.60
2018-05-13T19:47:18.875Z,8.75
2018-05-13T19:49:46.316Z,7.00
2018-05-13T19:52:14.531Z,8.70
2018-05-13T19:54:41.961Z,6.20
2018-05-13T19:57:09.452Z,5.18
2018-05-13T19:59:36.894Z,7.30
2018-05-13T20:02:04.332Z,7.30
2018-05-13T20:04:31.806Z,6.62
2018-05-13T20:06:59.309Z,5.10
2018-05-13T20:09:26.944Z,4.60
2018-05-13T20:11:54.356Z,6.03
2018-05-13T20:14:21.805Z,8.23
2018-05-13T20:16:50.020Z,4.87
2018-05-13T20:19:17.489Z,5.80
2018-05-13T20:21:44.933Z,8.30
2018-05-13T20:24:12.380Z,7.85
2018-05-13T20:26:39.863Z,5.17
2018-05-13T20:29:07.428Z,8.57
2018-05-13T20:31:34.953Z,6.70
2018-05-13T20:34:02.388Z,6.28
2018-05-13T20:36:29.897Z,6.47
2018-05-13T20:38:57.353Z,6.25
2018-05-13T20:41:24.804Z,6.62
2018-05-13T20:43:52.240Z,7.50
2018-05-13T20:46:19.684Z,7.90
2018-05-13T20:48:47.146Z,6.47
2018-05-13T20:51:14.669Z,7.18
2018-05-13T20:53:42.064Z,6.50
2018-05-13T20:56:09.508Z,8.50
2018-05-13T20:58:36.954Z,6.70
2018-05-13T21:01:04.478Z,7.05
2018-05-13T21:03:32.449Z,6.12
2018-05-13T21:05:59.880Z,8.23
2018-05-13T21:08:27.341Z,6.10
2018-05-13T21:10:54.767Z,5.78
2018-05-13T21:13:22.265Z,5.57
2018-05-13T21:15:49.708Z,6.32
2018-05-13T21:18:17.176Z,7.30
2018-05-13T21:20:44.628Z,6.85
2018-05-13T21:23:12.190Z,5.90
2018-05-13T21:25:39.621Z,6.50
2018-05-13T21:28:07.075Z,6.97
2018-05-13T21:30:34.541Z,5.70
2018-05-13T21:33:01.976Z,6.65
2018-05-13T21:35:29.461Z,6.30
2018-05-13T21:37:56.888Z,6.40
2018-05-13T21:40:24.409Z,6.60
2018-05-13T21:42:51.769Z,7.00
2018-05-13T21:45:19.979Z,6.37
2018-05-13T21:47:47.453Z,7.03
2018-05-13T21:50:14.916Z,6.72
2018-05-13T21:52:42.351Z,6.30
2018-05-13T21:55:09.788Z,6.40
2018-05-13T21:57:37.270Z,8.18
2018-05-13T22:00:04.815Z,6.35
2018-05-13T22:02:32.288Z,6.27
2018-05-13T22:04:59.772Z,6.57
2018-05-13T22:07:28.001Z,6.37
2018-05-13T22:09:55.428Z,7.30
2018-05-13T22:12:23.632Z,6.43
2018-05-13T22:14:51.088Z,6.10
2018-05-13T22:17:18.513Z,6.00
2018-05-13T22:19:46.740Z,6.30
2018-05-13T22:22:14.181Z,5.80
2018-05-13T22:24:41.612Z,6.50
2018-05-13T22:27:09.076Z,6.40
2018-05-13T22:29:36.514Z,6.10
2018-05-13T22:32:04.797Z,6.35
2018-05-13T22:34:32.291Z,6.10
2018-05-13T22:36:59.725Z,7.62
2018-05-13T22:39:27.174Z,6.32
2018-05-13T22:41:54.608Z,7.35
2018-05-13T22:44:22.817Z,6.53
2018-05-13T22:46:50.269Z,6.50
2018-05-13T22:49:17.727Z,6.30
2018-05-13T22:51:45.160Z,6.40
2018-05-13T22:54:12.641Z,6.53
2018-05-13T22:56:40.065Z,11.18
2018-05-13T22:59:08.263Z,6.70
2018-05-13T23:01:35.725Z,6.90
2018-05-13T23:04:03.202Z,7.87
2018-05-13T23:06:30.652Z,7.50
2018-05-13T23:08:58.080Z,6.43
2018-05-13T23:11:26.336Z,6.30
2018-05-13T23:13:53.757Z,6.97
2018-05-13T23:16:21.200Z,6.90
2018-05-13T23:18:48.624Z,6.60
2018-05-13T23:21:16.835Z,6.47
2018-05-13T23:23:44.394Z,6.10
2018-05-13T23:26:11.828Z,7.40
2018-05-13T23:28:39.357Z,6.40
2018-05-13T23:31:06.883Z,6.60
2018-05-13T23:33:34.339Z,6.70
2018-05-13T23:36:01.765Z,7.50
2018-05-13T23:38:29.249Z,5.95
2018-05-13T23:40:56.721Z,6.62
2018-05-13T23:43:24.156Z,7.68
2018-05-13T23:45:51.593Z,6.40
2018-05-13T23:48:19.025Z,7.60
2018-05-13T23:50:47.229Z,7.60
2018-05-13T23:53:14.973Z,7.78
2018-05-13T23:55:43.157Z,7.78
2018-05-13T23:58:10.728Z,7.45
